sensor_id;sensor_type;location;lat;lon;timestamp;P1;durP1;ratioP1;P2;durP2;ratioP2
9388;SDS011;4734;52.778;6.798;2023-09-18T00:02:14;9.73;;;8.73;;
9388;SDS011;4734;52.778;6.798;2023-09-18T00:04:59;9.55;;;8.75;;
9388;SDS011;4734;52.778;6.798;2023-09-18T00:07:45;10.55;;;9.48;;
9388;SDS011;4734;52.778;6.798;2023-09-18T00:10:30;10.48;;;9.57;;
9388;SDS011;4734;52.778;6.798;2023-09-18T00:13:20;9.90;;;8.98;;
9388;SDS011;4734;52.778;6.798;2023-09-18T00:16:06;10.27;;;9.23;;
9388;SDS011;4734;52.778;6.798;2023-09-18T00:18:51;23.90;;;8.77;;
9388;SDS011;4734;52.778;6.798;2023-09-18T00:21:37;10.15;;;9.35;;
9388;SDS011;4734;52.778;6.798;2023-09-18T00:24:23;11.48;;;10.48;;
9388;SDS011;4734;52.778;6.798;2023-09-18T00:27:09;12.48;;;11.27;;
9388;SDS011;4734;52.778;6.798;2023-09-18T00:29:57;11.30;;;10.30;;
9388;SDS011;4734;52.778;6.798;2023-09-18T00:32:42;12.40;;;11.25;;
9388;SDS011;4734;52.778;6.798;2023-09-18T00:35:28;12.70;;;11.68;;
9388;SDS011;4734;52.778;6.798;2023-09-18T00:38:14;12.48;;;11.38;;
9388;SDS011;4734;52.778;6.798;2023-09-18T00:40:59;13.75;;;12.55;;
9388;SDS011;4734;52.778;6.798;2023-09-18T00:43:44;16.10;;;14.70;;
9388;SDS011;4734;52.778;6.798;2023-09-18T00:46:32;16.75;;;15.05;;
9388;SDS011;4734;52.778;6.798;2023-09-18T00:49:18;15.50;;;14.13;;
9388;SDS011;4734;52.778;6.798;2023-09-18T00:52:05;15.52;;;14.02;;
9388;SDS011;4734;52.778;6.798;2023-09-18T00:54:51;18.73;;;16.33;;
9388;SDS011;4734;52.778;6.798;2023-09-18T00:57:37;17.17;;;15.13;;
9388;SDS011;4734;52.778;6.798;2023-09-18T01:00:23;16.55;;;15.05;;
9388;SDS011;4734;52.778;6.798;2023-09-18T01:03:09;17.85;;;16.17;;
9388;SDS011;4734;52.778;6.798;2023-09-18T01:05:55;18.38;;;16.52;;
9388;SDS011;4734;52.778;6.798;2023-09-18T01:08:40;17.27;;;15.68;;
9388;SDS011;4734;52.778;6.798;2023-09-18T01:11:27;19.02;;;17.27;;
9388;SDS011;4734;52.778;6.798;2023-09-18T01:14:20;19.50;;;17.52;;
9388;SDS011;4734;52.778;6.798;2023-09-18T01:17:12;19.10;;;17.33;;
9388;SDS011;4734;52.778;6.798;2023-09-18T01:20:02;17.73;;;16.08;;
9388;SDS011;4734;52.778;6.798;2023-09-18T01:22:49;18.10;;;16.45;;
9388;SDS011;4734;52.778;6.798;2023-09-18T01:25:34;18.77;;;16.98;;
9388;SDS011;4734;52.778;6.798;2023-09-18T01:28:20;16.85;;;15.25;;
9388;SDS011;4734;52.778;6.798;2023-09-18T01:31:06;18.15;;;16.40;;
9388;SDS011;4734;52.778;6.798;2023-09-18T01:33:51;17.92;;;16.42;;
9388;SDS011;4734;52.778;6.798;2023-09-18T01:36:38;17.25;;;15.57;;
9388;SDS011;4734;52.778;6.798;2023-09-18T01:39:25;17.05;;;15.65;;
9388;SDS011;4734;52.778;6.798;2023-09-18T01:42:15;17.60;;;15.95;;
9388;SDS011;4734;52.778;6.798;2023-09-18T01:45:01;17.33;;;15.57;;
9388;SDS011;4734;52.778;6.798;2023-09-18T01:47:48;16.05;;;14.55;;
9388;SDS011;4734;52.778;6.798;2023-09-18T01:50:36;15.90;;;14.50;;
9388;SDS011;4734;52.778;6.798;2023-09-18T01:53:24;15.38;;;13.82;;
9388;SDS011;4734;52.778;6.798;2023-09-18T01:56:11;15.27;;;14.00;;
9388;SDS011;4734;52.778;6.798;2023-09-18T01:58:57;15.45;;;14.13;;
9388;SDS011;4734;52.778;6.798;2023-09-18T02:01:42;16.23;;;14.63;;
9388;SDS011;4734;52.778;6.798;2023-09-18T02:04:28;15.43;;;13.88;;
9388;SDS011;4734;52.778;6.798;2023-09-18T02:07:13;16.33;;;14.63;;
9388;SDS011;4734;52.778;6.798;2023-09-18T02:09:59;15.82;;;14.30;;
9388;SDS011;4734;52.778;6.798;2023-09-18T02:12:46;15.65;;;14.02;;
9388;SDS011;4734;52.778;6.798;2023-09-18T02:15:31;15.50;;;14.00;;
9388;SDS011;4734;52.778;6.798;2023-09-18T02:18:19;14.93;;;13.43;;
9388;SDS011;4734;52.778;6.798;2023-09-18T02:21:04;16.10;;;14.55;;
9388;SDS011;4734;52.778;6.798;2023-09-18T02:23:51;14.93;;;13.40;;
9388;SDS011;4734;52.778;6.798;2023-09-18T02:26:37;14.95;;;13.55;;
9388;SDS011;4734;52.778;6.798;2023-09-18T02:29:23;14.90;;;13.32;;
9388;SDS011;4734;52.778;6.798;2023-09-18T02:32:09;14.60;;;13.10;;
9388;SDS011;4734;52.778;6.798;2023-09-18T02:34:55;14.40;;;13.10;;
9388;SDS011;4734;52.778;6.798;2023-09-18T02:37:40;13.98;;;12.52;;
9388;SDS011;4734;52.778;6.798;2023-09-18T02:40:26;13.55;;;12.27;;
9388;SDS011;4734;52.778;6.798;2023-09-18T02:43:11;13.77;;;12.57;;
9388;SDS011;4734;52.778;6.798;2023-09-18T02:45:58;13.60;;;12.30;;
9388;SDS011;4734;52.778;6.798;2023-09-18T02:48:44;12.82;;;11.50;;
9388;SDS011;4734;52.778;6.798;2023-09-18T02:51:29;13.10;;;11.93;;
9388;SDS011;4734;52.778;6.798;2023-09-18T02:54:15;13.85;;;12.48;;
9388;SDS011;4734;52.778;6.798;2023-09-18T02:57:00;13.18;;;11.98;;
9388;SDS011;4734;52.778;6.798;2023-09-18T02:59:46;12.70;;;11.60;;
9388;SDS011;4734;52.778;6.798;2023-09-18T03:02:33;13.50;;;10.93;;
9388;SDS011;4734;52.778;6.798;2023-09-18T03:05:19;13.15;;;11.95;;
9388;SDS011;4734;52.778;6.798;2023-09-18T03:08:04;11.65;;;10.45;;
9388;SDS011;4734;52.778;6.798;2023-09-18T03:10:50;16.17;;;10.18;;
9388;SDS011;4734;52.778;6.798;2023-09-18T03:13:35;11.32;;;10.18;;
9388;SDS011;4734;52.778;6.798;2023-09-18T03:16:21;11.20;;;9.98;;
9388;SDS011;4734;52.778;6.798;2023-09-18T03:19:08;11.02;;;10.10;;
9388;SDS011;4734;52.778;6.798;2023-09-18T03:21:53;11.43;;;10.32;;
9388;SDS011;4734;52.778;6.798;2023-09-18T03:24:39;11.25;;;10.18;;
9388;SDS011;4734;52.778;6.798;2023-09-18T03:27:24;11.82;;;10.63;;
9388;SDS011;4734;52.778;6.798;2023-09-18T03:30:12;12.32;;;10.20;;
9388;SDS011;4734;52.778;6.798;2023-09-18T03:32:59;11.40;;;9.90;;
9388;SDS011;4734;52.778;6.798;2023-09-18T03:35:47;10.60;;;9.60;;
9388;SDS011;4734;52.778;6.798;2023-09-18T03:38:32;11.13;;;9.98;;
9388;SDS011;4734;52.778;6.798;2023-09-18T03:41:19;10.00;;;8.98;;
9388;SDS011;4734;52.778;6.798;2023-09-18T03:44:05;10.60;;;9.60;;
9388;SDS011;4734;52.778;6.798;2023-09-18T03:46:50;11.73;;;10.05;;
9388;SDS011;4734;52.778;6.798;2023-09-18T03:49:36;11.32;;;10.18;;
9388;SDS011;4734;52.778;6.798;2023-09-18T03:52:23;10.40;;;9.48;;
9388;SDS011;4734;52.778;6.798;2023-09-18T03:55:09;10.38;;;9.38;;
9388;SDS011;4734;52.778;6.798;2023-09-18T03:57:54;10.77;;;9.73;;
9388;SDS011;4734;52.778;6.798;2023-09-18T04:00:40;11.05;;;9.32;;
9388;SDS011;4734;52.778;6.798;2023-09-18T04:03:26;10.15;;;9.13;;
9388;SDS011;4734;52.778;6.798;2023-09-18T04:06:12;10.65;;;9.57;;
9388;SDS011;4734;52.778;6.798;2023-09-18T04:08:59;11.38;;;10.18;;
9388;SDS011;4734;52.778;6.798;2023-09-18T04:11:44;10.38;;;9.35;;
9388;SDS011;4734;52.778;6.798;2023-09-18T04:14:30;9.90;;;8.90;;
9388;SDS011;4734;52.778;6.798;2023-09-18T04:17:15;10.07;;;9.07;;
9388;SDS011;4734;52.778;6.798;2023-09-18T04:20:01;10.02;;;9.00;;
9388;SDS011;4734;52.778;6.798;2023-09-18T04:23:16;10.13;;;9.15;;
9388;SDS011;4734;52.778;6.798;2023-09-18T04:26:05;10.27;;;9.23;;
9388;SDS011;4734;52.778;6.798;2023-09-18T04:28:50;9.93;;;9.02;;
9388;SDS011;4734;52.778;6.798;2023-09-18T04:31:36;14.15;;;9.68;;
9388;SDS011;4734;52.778;6.798;2023-09-18T04:34:21;10.35;;;9.32;;
9388;SDS011;4734;52.778;6.798;2023-09-18T04:37:07;14.30;;;9.40;;
9388;SDS011;4734;52.778;6.798;2023-09-18T04:39:52;10.35;;;9.13;;
9388;SDS011;4734;52.778;6.798;2023-09-18T04:42:39;10.65;;;9.55;;
9388;SDS011;4734;52.778;6.798;2023-09-18T04:45:24;10.40;;;9.40;;
9388;SDS011;4734;52.778;6.798;2023-09-18T04:48:10;11.23;;;10.00;;
9388;SDS011;4734;52.778;6.798;2023-09-18T04:50:55;10.65;;;8.98;;
9388;SDS011;4734;52.778;6.798;2023-09-18T04:53:41;10.68;;;9.57;;
9388;SDS011;4734;52.778;6.798;2023-09-18T04:56:26;10.82;;;9.77;;
9388;SDS011;4734;52.778;6.798;2023-09-18T04:59:13;12.27;;;9.30;;
9388;SDS011;4734;52.778;6.798;2023-09-18T05:01:59;10.85;;;9.05;;
9388;SDS011;4734;52.778;6.798;2023-09-18T05:04:45;11.05;;;9.23;;
9388;SDS011;4734;52.778;6.798;2023-09-18T05:07:30;10.75;;;9.65;;
9388;SDS011;4734;52.778;6.798;2023-09-18T05:10:16;10.43;;;8.85;;
9388;SDS011;4734;52.778;6.798;2023-09-18T05:13:01;10.52;;;9.40;;
9388;SDS011;4734;52.778;6.798;2023-09-18T05:15:48;11.70;;;9.48;;
9388;SDS011;4734;52.778;6.798;2023-09-18T05:18:34;13.20;;;9.30;;
9388;SDS011;4734;52.778;6.798;2023-09-18T05:21:20;12.35;;;9.15;;
9388;SDS011;4734;52.778;6.798;2023-09-18T05:24:08;9.43;;;8.50;;
9388;SDS011;4734;52.778;6.798;2023-09-18T05:26:53;12.45;;;8.82;;
9388;SDS011;4734;52.778;6.798;2023-09-18T05:29:39;11.25;;;8.60;;
9388;SDS011;4734;52.778;6.798;2023-09-18T05:32:26;9.68;;;8.88;;
9388;SDS011;4734;52.778;6.798;2023-09-18T05:35:11;9.35;;;8.45;;
9388;SDS011;4734;52.778;6.798;2023-09-18T05:37:57;10.63;;;8.32;;
9388;SDS011;4734;52.778;6.798;2023-09-18T05:40:43;9.60;;;8.50;;
9388;SDS011;4734;52.778;6.798;2023-09-18T05:43:29;11.10;;;8.45;;
9388;SDS011;4734;52.778;6.798;2023-09-18T05:46:15;13.30;;;8.65;;
9388;SDS011;4734;52.778;6.798;2023-09-18T05:49:02;12.50;;;8.70;;
9388;SDS011;4734;52.778;6.798;2023-09-18T05:51:48;9.38;;;8.52;;
9388;SDS011;4734;52.778;6.798;2023-09-18T05:54:34;9.52;;;8.35;;
9388;SDS011;4734;52.778;6.798;2023-09-18T05:57:20;11.45;;;8.98;;
9388;SDS011;4734;52.778;6.798;2023-09-18T06:00:06;8.98;;;8.07;;
9388;SDS011;4734;52.778;6.798;2023-09-18T06:02:52;9.93;;;8.05;;
9388;SDS011;4734;52.778;6.798;2023-09-18T06:05:39;9.05;;;7.63;;
9388;SDS011;4734;52.778;6.798;2023-09-18T06:08:24;9.18;;;8.27;;
9388;SDS011;4734;52.778;6.798;2023-09-18T06:11:10;9.65;;;7.93;;
9388;SDS011;4734;52.778;6.798;2023-09-18T06:13:55;9.48;;;8.20;;
9388;SDS011;4734;52.778;6.798;2023-09-18T06:16:41;11.40;;;7.75;;
9388;SDS011;4734;52.778;6.798;2023-09-18T06:19:26;11.93;;;7.63;;
9388;SDS011;4734;52.778;6.798;2023-09-18T06:22:13;8.75;;;7.80;;
9388;SDS011;4734;52.778;6.798;2023-09-18T06:24:59;11.75;;;8.35;;
9388;SDS011;4734;52.778;6.798;2023-09-18T06:27:44;11.05;;;7.32;;
9388;SDS011;4734;52.778;6.798;2023-09-18T06:30:30;12.18;;;7.93;;
9388;SDS011;4734;52.778;6.798;2023-09-18T06:33:17;11.50;;;7.90;;
9388;SDS011;4734;52.778;6.798;2023-09-18T06:36:03;10.40;;;7.30;;
9388;SDS011;4734;52.778;6.798;2023-09-18T06:38:50;13.75;;;7.38;;
9388;SDS011;4734;52.778;6.798;2023-09-18T06:41:35;10.00;;;7.32;;
9388;SDS011;4734;52.778;6.798;2023-09-18T06:44:21;8.07;;;7.25;;
9388;SDS011;4734;52.778;6.798;2023-09-18T06:47:07;8.55;;;7.38;;
9388;SDS011;4734;52.778;6.798;2023-09-18T06:49:52;9.43;;;7.30;;
9388;SDS011;4734;52.778;6.798;2023-09-18T06:52:38;8.77;;;7.75;;
9388;SDS011;4734;52.778;6.798;2023-09-18T06:55:25;10.82;;;8.10;;
9388;SDS011;4734;52.778;6.798;2023-09-18T06:58:10;10.43;;;8.10;;
9388;SDS011;4734;52.778;6.798;2023-09-18T07:00:56;12.57;;;9.30;;
9388;SDS011;4734;52.778;6.798;2023-09-18T07:03:42;18.95;;;9.85;;
9388;SDS011;4734;52.778;6.798;2023-09-18T07:06:28;12.93;;;10.00;;
9388;SDS011;4734;52.778;6.798;2023-09-18T07:09:14;22.10;;;11.13;;
9388;SDS011;4734;52.778;6.798;2023-09-18T07:12:03;14.07;;;10.25;;
9388;SDS011;4734;52.778;6.798;2023-09-18T07:14:49;16.08;;;10.35;;
9388;SDS011;4734;52.778;6.798;2023-09-18T07:17:34;11.50;;;10.40;;
9388;SDS011;4734;52.778;6.798;2023-09-18T07:20:20;13.23;;;11.07;;
9388;SDS011;4734;52.778;6.798;2023-09-18T07:23:07;12.32;;;10.45;;
9388;SDS011;4734;52.778;6.798;2023-09-18T07:25:52;16.45;;;10.68;;
9388;SDS011;4734;52.778;6.798;2023-09-18T07:28:40;13.27;;;10.30;;
9388;SDS011;4734;52.778;6.798;2023-09-18T07:31:28;12.80;;;10.52;;
9388;SDS011;4734;52.778;6.798;2023-09-18T07:34:14;12.15;;;10.45;;
9388;SDS011;4734;52.778;6.798;2023-09-18T07:37:01;11.73;;;10.63;;
9388;SDS011;4734;52.778;6.798;2023-09-18T07:39:47;12.88;;;10.80;;
9388;SDS011;4734;52.778;6.798;2023-09-18T07:42:32;11.88;;;10.55;;
9388;SDS011;4734;52.778;6.798;2023-09-18T07:45:19;12.52;;;11.23;;
9388;SDS011;4734;52.778;6.798;2023-09-18T07:48:05;12.35;;;10.85;;
9388;SDS011;4734;52.778;6.798;2023-09-18T07:50:51;12.68;;;11.38;;
9388;SDS011;4734;52.778;6.798;2023-09-18T07:53:39;14.80;;;11.55;;
9388;SDS011;4734;52.778;6.798;2023-09-18T07:56:24;14.05;;;11.82;;
9388;SDS011;4734;52.778;6.798;2023-09-18T07:59:11;15.95;;;11.77;;
9388;SDS011;4734;52.778;6.798;2023-09-18T08:01:59;14.25;;;11.55;;
9388;SDS011;4734;52.778;6.798;2023-09-18T08:04:45;12.57;;;11.38;;
9388;SDS011;4734;52.778;6.798;2023-09-18T08:07:30;12.20;;;10.95;;
9388;SDS011;4734;52.778;6.798;2023-09-18T08:10:16;11.65;;;10.45;;
9388;SDS011;4734;52.778;6.798;2023-09-18T08:13:02;10.38;;;9.52;;
9388;SDS011;4734;52.778;6.798;2023-09-18T08:15:48;11.63;;;10.20;;
9388;SDS011;4734;52.778;6.798;2023-09-18T08:18:35;13.10;;;10.30;;
9388;SDS011;4734;52.778;6.798;2023-09-18T08:21:24;10.75;;;9.68;;
9388;SDS011;4734;52.778;6.798;2023-09-18T08:24:12;11.23;;;9.65;;
9388;SDS011;4734;52.778;6.798;2023-09-18T08:26:58;11.40;;;10.05;;
9388;SDS011;4734;52.778;6.798;2023-09-18T08:29:43;11.43;;;9.68;;
9388;SDS011;4734;52.778;6.798;2023-09-18T08:32:29;11.32;;;10.10;;
9388;SDS011;4734;52.778;6.798;2023-09-18T08:35:19;13.60;;;11.55;;
9388;SDS011;4734;52.778;6.798;2023-09-18T08:38:05;16.70;;;10.68;;
9388;SDS011;4734;52.778;6.798;2023-09-18T08:40:53;12.02;;;10.82;;
9388;SDS011;4734;52.778;6.798;2023-09-18T08:43:40;13.02;;;11.13;;
9388;SDS011;4734;52.778;6.798;2023-09-18T08:46:28;12.15;;;11.05;;
9388;SDS011;4734;52.778;6.798;2023-09-18T08:49:14;14.98;;;10.60;;
9388;SDS011;4734;52.778;6.798;2023-09-18T08:52:02;13.52;;;11.48;;
9388;SDS011;4734;52.778;6.798;2023-09-18T08:54:48;13.68;;;11.02;;
9388;SDS011;4734;52.778;6.798;2023-09-18T08:57:35;14.13;;;10.93;;
9388;SDS011;4734;52.778;6.798;2023-09-18T09:00:27;12.75;;;11.02;;
9388;SDS011;4734;52.778;6.798;2023-09-18T09:03:13;11.98;;;10.27;;
9388;SDS011;4734;52.778;6.798;2023-09-18T09:05:59;12.23;;;10.63;;
9388;SDS011;4734;52.778;6.798;2023-09-18T09:08:47;11.57;;;10.38;;
9388;SDS011;4734;52.778;6.798;2023-09-18T09:11:34;11.10;;;9.98;;
9388;SDS011;4734;52.778;6.798;2023-09-18T09:14:20;13.45;;;9.98;;
9388;SDS011;4734;52.778;6.798;2023-09-18T09:17:17;13.40;;;9.60;;
9388;SDS011;4734;52.778;6.798;2023-09-18T09:20:09;10.48;;;9.48;;
9388;SDS011;4734;52.778;6.798;2023-09-18T09:23:00;9.93;;;8.93;;
9388;SDS011;4734;52.778;6.798;2023-09-18T09:25:47;10.25;;;9.32;;
9388;SDS011;4734;52.778;6.798;2023-09-18T09:28:33;10.68;;;9.43;;
9388;SDS011;4734;52.778;6.798;2023-09-18T09:31:25;9.98;;;8.80;;
9388;SDS011;4734;52.778;6.798;2023-09-18T09:34:11;12.65;;;9.27;;
9388;SDS011;4734;52.778;6.798;2023-09-18T09:36:57;9.25;;;8.20;;
9388;SDS011;4734;52.778;6.798;2023-09-18T09:39:48;10.65;;;8.25;;
9388;SDS011;4734;52.778;6.798;2023-09-18T09:42:39;10.98;;;7.53;;
9388;SDS011;4734;52.778;6.798;2023-09-18T09:45:25;7.82;;;7.00;;
9388;SDS011;4734;52.778;6.798;2023-09-18T09:48:12;8.52;;;6.70;;
9388;SDS011;4734;52.778;6.798;2023-09-18T09:50:58;9.55;;;6.97;;
9388;SDS011;4734;52.778;6.798;2023-09-18T09:53:45;7.82;;;7.13;;
9388;SDS011;4734;52.778;6.798;2023-09-18T09:56:42;7.63;;;6.93;;
9388;SDS011;4734;52.778;6.798;2023-09-18T09:59:30;8.52;;;6.15;;
9388;SDS011;4734;52.778;6.798;2023-09-18T10:02:18;10.18;;;6.15;;
9388;SDS011;4734;52.778;6.798;2023-09-18T10:05:06;6.20;;;5.57;;
9388;SDS011;4734;52.778;6.798;2023-09-18T10:07:52;7.53;;;5.82;;
9388;SDS011;4734;52.778;6.798;2023-09-18T10:10:42;9.60;;;5.93;;
9388;SDS011;4734;52.778;6.798;2023-09-18T10:13:36;7.60;;;5.60;;
9388;SDS011;4734;52.778;6.798;2023-09-18T10:16:31;6.38;;;5.18;;
9388;SDS011;4734;52.778;6.798;2023-09-18T10:19:21;5.90;;;5.03;;
9388;SDS011;4734;52.778;6.798;2023-09-18T10:22:19;5.35;;;4.95;;
9388;SDS011;4734;52.778;6.798;2023-09-18T10:25:13;5.57;;;5.07;;
9388;SDS011;4734;52.778;6.798;2023-09-18T10:28:02;5.15;;;4.65;;
9388;SDS011;4734;52.778;6.798;2023-09-18T10:30:51;5.93;;;4.65;;
9388;SDS011;4734;52.778;6.798;2023-09-18T10:33:38;4.68;;;4.28;;
9388;SDS011;4734;52.778;6.798;2023-09-18T10:36:25;6.15;;;4.68;;
9388;SDS011;4734;52.778;6.798;2023-09-18T10:39:11;6.93;;;5.18;;
9388;SDS011;4734;52.778;6.798;2023-09-18T10:41:56;5.25;;;4.80;;
9388;SDS011;4734;52.778;6.798;2023-09-18T10:44:47;5.07;;;4.13;;
9388;SDS011;4734;52.778;6.798;2023-09-18T10:47:34;6.68;;;4.15;;
9388;SDS011;4734;52.778;6.798;2023-09-18T10:50:25;4.38;;;3.90;;
9388;SDS011;4734;52.778;6.798;2023-09-18T10:53:14;5.13;;;3.88;;
9388;SDS011;4734;52.778;6.798;2023-09-18T10:56:00;3.95;;;3.65;;
9388;SDS011;4734;52.778;6.798;2023-09-18T10:58:55;4.47;;;3.83;;
9388;SDS011;4734;52.778;6.798;2023-09-18T11:01:42;5.78;;;3.33;;
9388;SDS011;4734;52.778;6.798;2023-09-18T11:04:28;3.40;;;3.10;;
9388;SDS011;4734;52.778;6.798;2023-09-18T11:07:21;3.80;;;3.38;;
9388;SDS011;4734;52.778;6.798;2023-09-18T11:10:26;5.18;;;3.47;;
9388;SDS011;4734;52.778;6.798;2023-09-18T11:13:12;3.97;;;2.83;;
9388;SDS011;4734;52.778;6.798;2023-09-18T11:16:14;3.75;;;3.20;;
9388;SDS011;4734;52.778;6.798;2023-09-18T11:19:07;3.33;;;2.78;;
9388;SDS011;4734;52.778;6.798;2023-09-18T11:22:05;3.60;;;3.10;;
9388;SDS011;4734;52.778;6.798;2023-09-18T11:24:55;4.25;;;2.90;;
9388;SDS011;4734;52.778;6.798;2023-09-18T11:28:22;3.78;;;2.80;;
9388;SDS011;4734;52.778;6.798;2023-09-18T11:31:08;2.95;;;2.67;;
9388;SDS011;4734;52.778;6.798;2023-09-18T11:33:55;4.80;;;2.50;;
9388;SDS011;4734;52.778;6.798;2023-09-18T11:36:40;3.65;;;2.35;;
9388;SDS011;4734;52.778;6.798;2023-09-18T11:39:32;4.40;;;2.85;;
9388;SDS011;4734;52.778;6.798;2023-09-18T11:42:21;5.72;;;2.33;;
9388;SDS011;4734;52.778;6.798;2023-09-18T11:45:15;3.15;;;2.53;;
9388;SDS011;4734;52.778;6.798;2023-09-18T11:48:02;2.92;;;2.72;;
9388;SDS011;4734;52.778;6.798;2023-09-18T11:50:49;2.63;;;2.30;;
9388;SDS011;4734;52.778;6.798;2023-09-18T11:53:38;3.45;;;2.60;;
9388;SDS011;4734;52.778;6.798;2023-09-18T11:56:27;4.07;;;2.30;;
9388;SDS011;4734;52.778;6.798;2023-09-18T11:59:14;2.70;;;2.50;;
9388;SDS011;4734;52.778;6.798;2023-09-18T12:02:03;2.85;;;2.50;;
9388;SDS011;4734;52.778;6.798;2023-09-18T12:04:51;3.63;;;2.28;;
9388;SDS011;4734;52.778;6.798;2023-09-18T12:07:37;2.50;;;2.30;;
9388;SDS011;4734;52.778;6.798;2023-09-18T12:10:23;3.30;;;2.10;;
9388;SDS011;4734;52.778;6.798;2023-09-18T12:13:11;2.67;;;2.13;;
9388;SDS011;4734;52.778;6.798;2023-09-18T12:16:00;3.83;;;2.33;;
9388;SDS011;4734;52.778;6.798;2023-09-18T12:18:52;2.95;;;2.40;;
9388;SDS011;4734;52.778;6.798;2023-09-18T12:21:46;2.20;;;2.00;;
9388;SDS011;4734;52.778;6.798;2023-09-18T12:24:32;2.33;;;2.13;;
9388;SDS011;4734;52.778;6.798;2023-09-18T12:27:18;3.20;;;2.05;;
9388;SDS011;4734;52.778;6.798;2023-09-18T12:30:04;4.28;;;1.92;;
9388;SDS011;4734;52.778;6.798;2023-09-18T12:32:52;4.25;;;1.92;;
9388;SDS011;4734;52.778;6.798;2023-09-18T12:35:41;2.97;;;2.13;;
9388;SDS011;4734;52.778;6.798;2023-09-18T12:38:26;4.15;;;2.28;;
9388;SDS011;4734;52.778;6.798;2023-09-18T12:41:12;2.65;;;2.15;;
9388;SDS011;4734;52.778;6.798;2023-09-18T12:43:57;2.63;;;2.22;;
9388;SDS011;4734;52.778;6.798;2023-09-18T12:46:43;4.30;;;2.40;;
9388;SDS011;4734;52.778;6.798;2023-09-18T12:49:34;5.70;;;2.40;;
9388;SDS011;4734;52.778;6.798;2023-09-18T12:52:21;4.47;;;3.08;;
9388;SDS011;4734;52.778;6.798;2023-09-18T12:55:07;3.80;;;3.05;;
9388;SDS011;4734;52.778;6.798;2023-09-18T12:57:54;6.25;;;2.90;;
9388;SDS011;4734;52.778;6.798;2023-09-18T13:00:44;3.88;;;2.63;;
9388;SDS011;4734;52.778;6.798;2023-09-18T13:03:31;3.25;;;2.53;;
9388;SDS011;4734;52.778;6.798;2023-09-18T13:06:18;4.65;;;3.05;;
9388;SDS011;4734;52.778;6.798;2023-09-18T13:09:16;3.17;;;2.90;;
9388;SDS011;4734;52.778;6.798;2023-09-18T13:12:05;4.50;;;3.15;;
9388;SDS011;4734;52.778;6.798;2023-09-18T13:14:57;3.30;;;2.90;;
9388;SDS011;4734;52.778;6.798;2023-09-18T13:17:44;5.13;;;3.40;;
9388;SDS011;4734;52.778;6.798;2023-09-18T13:20:31;4.88;;;3.03;;
9388;SDS011;4734;52.778;6.798;2023-09-18T13:23:18;3.90;;;3.20;;
9388;SDS011;4734;52.778;6.798;2023-09-18T13:26:05;2.92;;;2.67;;
9388;SDS011;4734;52.778;6.798;2023-09-18T13:28:52;5.55;;;2.83;;
9388;SDS011;4734;52.778;6.798;2023-09-18T13:31:37;3.60;;;3.00;;
9388;SDS011;4734;52.778;6.798;2023-09-18T13:34:23;4.75;;;3.35;;
9388;SDS011;4734;52.778;6.798;2023-09-18T13:37:09;5.75;;;3.33;;
9388;SDS011;4734;52.778;6.798;2023-09-18T13:39:55;4.63;;;3.03;;
9388;SDS011;4734;52.778;6.798;2023-09-18T13:42:41;4.07;;;3.10;;
9388;SDS011;4734;52.778;6.798;2023-09-18T13:45:27;4.20;;;3.00;;
9388;SDS011;4734;52.778;6.798;2023-09-18T13:48:12;5.05;;;3.30;;
9388;SDS011;4734;52.778;6.798;2023-09-18T13:50:58;3.60;;;3.30;;
9388;SDS011;4734;52.778;6.798;2023-09-18T13:53:45;3.83;;;2.80;;
9388;SDS011;4734;52.778;6.798;2023-09-18T13:56:33;5.22;;;3.15;;
9388;SDS011;4734;52.778;6.798;2023-09-18T13:59:19;3.40;;;3.10;;
9388;SDS011;4734;52.778;6.798;2023-09-18T14:02:05;5.00;;;3.03;;
9388;SDS011;4734;52.778;6.798;2023-09-18T14:04:52;3.00;;;2.80;;
9388;SDS011;4734;52.778;6.798;2023-09-18T14:07:37;4.05;;;2.83;;
9388;SDS011;4734;52.778;6.798;2023-09-18T14:10:23;5.32;;;2.85;;
9388;SDS011;4734;52.778;6.798;2023-09-18T14:13:10;3.65;;;2.72;;
9388;SDS011;4734;52.778;6.798;2023-09-18T14:15:56;4.70;;;2.88;;
9388;SDS011;4734;52.778;6.798;2023-09-18T14:18:41;6.13;;;3.00;;
9388;SDS011;4734;52.778;6.798;2023-09-18T14:21:27;4.75;;;2.63;;
9388;SDS011;4734;52.778;6.798;2023-09-18T14:24:13;3.70;;;2.70;;
9388;SDS011;4734;52.778;6.798;2023-09-18T14:27:01;3.67;;;2.70;;
9388;SDS011;4734;52.778;6.798;2023-09-18T14:29:48;3.83;;;2.70;;
9388;SDS011;4734;52.778;6.798;2023-09-18T14:32:34;2.78;;;2.55;;
9388;SDS011;4734;52.778;6.798;2023-09-18T14:35:20;6.55;;;2.90;;
9388;SDS011;4734;52.778;6.798;2023-09-18T14:38:06;4.72;;;2.45;;
9388;SDS011;4734;52.778;6.798;2023-09-18T14:40:53;3.30;;;2.50;;
9388;SDS011;4734;52.778;6.798;2023-09-18T14:43:44;2.78;;;2.10;;
9388;SDS011;4734;52.778;6.798;2023-09-18T14:46:31;3.85;;;2.40;;
9388;SDS011;4734;52.778;6.798;2023-09-18T14:49:17;3.22;;;2.50;;
9388;SDS011;4734;52.778;6.798;2023-09-18T14:52:03;4.72;;;2.50;;
9388;SDS011;4734;52.778;6.798;2023-09-18T14:54:48;4.43;;;2.80;;
9388;SDS011;4734;52.778;6.798;2023-09-18T14:57:34;2.60;;;2.40;;
9388;SDS011;4734;52.778;6.798;2023-09-18T15:00:20;3.75;;;2.40;;
9388;SDS011;4734;52.778;6.798;2023-09-18T15:03:07;6.75;;;2.70;;
9388;SDS011;4734;52.778;6.798;2023-09-18T15:05:52;3.38;;;2.45;;
9388;SDS011;4734;52.778;6.798;2023-09-18T15:08:39;2.80;;;2.30;;
9388;SDS011;4734;52.778;6.798;2023-09-18T15:11:24;5.35;;;2.30;;
9388;SDS011;4734;52.778;6.798;2023-09-18T15:14:10;3.70;;;2.25;;
9388;SDS011;4734;52.778;6.798;2023-09-18T15:16:55;4.47;;;2.20;;
9388;SDS011;4734;52.778;6.798;2023-09-18T15:19:42;3.38;;;2.10;;
9388;SDS011;4734;52.778;6.798;2023-09-18T15:22:32;2.83;;;2.03;;
9388;SDS011;4734;52.778;6.798;2023-09-18T15:25:17;4.15;;;2.33;;
9388;SDS011;4734;52.778;6.798;2023-09-18T15:28:05;2.90;;;2.10;;
9388;SDS011;4734;52.778;6.798;2023-09-18T15:30:50;3.15;;;2.38;;
9388;SDS011;4734;52.778;6.798;2023-09-18T15:33:36;2.55;;;2.35;;
9388;SDS011;4734;52.778;6.798;2023-09-18T15:36:23;3.42;;;2.50;;
9388;SDS011;4734;52.778;6.798;2023-09-18T15:39:08;3.28;;;2.40;;
9388;SDS011;4734;52.778;6.798;2023-09-18T15:41:54;2.67;;;2.47;;
9388;SDS011;4734;52.778;6.798;2023-09-18T15:44:40;2.30;;;2.10;;
9388;SDS011;4734;52.778;6.798;2023-09-18T15:47:27;3.85;;;2.25;;
9388;SDS011;4734;52.778;6.798;2023-09-18T15:50:13;4.20;;;2.33;;
9388;SDS011;4734;52.778;6.798;2023-09-18T15:53:01;4.32;;;2.30;;
9388;SDS011;4734;52.778;6.798;2023-09-18T15:55:46;2.38;;;2.10;;
9388;SDS011;4734;52.778;6.798;2023-09-18T15:58:32;5.15;;;2.60;;
9388;SDS011;4734;52.778;6.798;2023-09-18T16:01:18;3.25;;;2.40;;
9388;SDS011;4734;52.778;6.798;2023-09-18T16:04:04;2.55;;;2.08;;
9388;SDS011;4734;52.778;6.798;2023-09-18T16:06:49;3.63;;;2.33;;
9388;SDS011;4734;52.778;6.798;2023-09-18T16:09:37;4.47;;;1.98;;
9388;SDS011;4734;52.778;6.798;2023-09-18T16:12:23;3.08;;;2.20;;
9388;SDS011;4734;52.778;6.798;2023-09-18T16:15:09;4.28;;;2.38;;
9388;SDS011;4734;52.778;6.798;2023-09-18T16:17:54;4.18;;;2.10;;
9388;SDS011;4734;52.778;6.798;2023-09-18T16:20:40;2.42;;;2.20;;
9388;SDS011;4734;52.778;6.798;2023-09-18T16:23:25;2.92;;;2.25;;
9388;SDS011;4734;52.778;6.798;2023-09-18T16:26:12;2.05;;;1.88;;
9388;SDS011;4734;52.778;6.798;2023-09-18T16:28:58;2.22;;;1.92;;
9388;SDS011;4734;52.778;6.798;2023-09-18T16:31:43;4.50;;;2.20;;
9388;SDS011;4734;52.778;6.798;2023-09-18T16:34:29;2.53;;;1.98;;
9388;SDS011;4734;52.778;6.798;2023-09-18T16:37:15;3.40;;;1.88;;
9388;SDS011;4734;52.778;6.798;2023-09-18T16:40:00;3.83;;;2.17;;
9388;SDS011;4734;52.778;6.798;2023-09-18T16:42:48;4.32;;;2.10;;
9388;SDS011;4734;52.778;6.798;2023-09-18T16:45:33;2.33;;;1.98;;
9388;SDS011;4734;52.778;6.798;2023-09-18T16:48:19;2.50;;;2.00;;
9388;SDS011;4734;52.778;6.798;2023-09-18T16:51:04;2.20;;;2.00;;
9388;SDS011;4734;52.778;6.798;2023-09-18T16:53:52;2.75;;;2.20;;
9388;SDS011;4734;52.778;6.798;2023-09-18T16:56:39;3.78;;;1.92;;
9388;SDS011;4734;52.778;6.798;2023-09-18T16:59:26;2.30;;;2.10;;
9388;SDS011;4734;52.778;6.798;2023-09-18T17:02:13;4.53;;;1.90;;
9388;SDS011;4734;52.778;6.798;2023-09-18T17:04:59;2.42;;;2.03;;
9388;SDS011;4734;52.778;6.798;2023-09-18T17:07:44;2.78;;;2.05;;